Time;durP1;ratioP1;P1;durP2;ratioP2;P2;SDS_P1;SDS_P2;PMS_P1;PMS_P2;Temp;Humidity;BMP_temperature;BMP_pressure;BME280_temperature;BME280_humidity;BME280_pressure;Samples;Min_cycle;Max_cycle;Signal;HPM_P1;HPM_P2
2022/09/11 00:00:43;;;;;;;3.22;1.75;;;;;;;;;;5004722;28;20192;-77
2022/09/11 00:03:11;;;;;;;4.53;2.10;;;;;;;;;;4997772;28;20038;-77
2022/09/11 00:05:42;;;;;;;5.80;1.92;;;;;;;;;;5004924;28;20397;-77
2022/09/11 00:08:10;;;;;;;2.10;1.55;;;;;;;;;;5004344;28;20084;-77
2022/09/11 00:10:39;;;;;;;1.77;1.67;;;;;;;;;;5005408;28;20367;-77
2022/09/11 00:13:07;;;;;;;5.57;1.67;;;;;;;;;;5005127;28;20084;-77
2022/09/11 00:15:38;;;;;;;2.08;1.83;;;;;;;;;;5003313;28;20416;-77
2022/09/11 00:18:06;;;;;;;2.78;1.70;;;;;;;;;;5001667;28;20501;-77
2022/09/11 00:20:34;;;;;;;2.83;1.40;;;;;;;;;;4998219;28;20119;-77
2022/09/11 00:23:03;;;;;;;3.80;1.70;;;;;;;;;;4986993;28;20123;-77
2022/09/11 00:25:34;;;;;;;2.50;1.55;;;;;;;;;;5004006;28;20034;-76
2022/09/11 00:28:02;;;;;;;1.27;1.05;;;;;;;;;;5004282;28;20092;-77
2022/09/11 00:30:29;;;;;;;2.05;1.33;;;;;;;;;;5003054;28;20037;-77
2022/09/11 00:32:57;;;;;;;5.40;1.30;;;;;;;;;;4985000;28;20042;-75
2022/09/11 00:35:25;;;;;;;1.50;1.40;;;;;;;;;;5004885;28;20049;-76
2022/09/11 00:37:52;;;;;;;1.88;1.20;;;;;;;;;;4982274;28;20441;-77
2022/09/11 00:40:20;;;;;;;4.07;1.40;;;;;;;;;;4987589;28;20560;-76
2022/09/11 00:42:54;;;;;;;4.60;1.60;;;;;;;;;;5004455;28;20050;-76
2022/09/11 00:45:25;;;;;;;1.40;1.30;;;;;;;;;;5004797;28;20509;-76
2022/09/11 00:47:53;;;;;;;;;;;;;;;;;;4984178;28;20502;-76
2022/09/11 00:50:23;;;;;;;5.05;1.42;;;;;;;;;;4990649;28;19940;-76
2022/09/11 00:52:55;;;;;;;4.20;1.45;;;;;;;;;;5003820;28;20054;-76
2022/09/11 00:55:26;;;;;;;5.15;1.73;;;;;;;;;;5004076;28;20058;-78
2022/09/11 00:58:00;;;;;;;2.05;1.70;;;;;;;;;;4987050;28;20054;-77
2022/09/11 01:00:28;;;;;;;3.58;1.40;;;;;;;;;;5004991;28;20462;-76
2022/09/11 01:02:56;;;;;;;4.43;1.80;;;;;;;;;;5003883;28;20472;-78
2022/09/11 01:05:25;;;;;;;7.28;1.50;;;;;;;;;;4984059;28;20860;-77
2022/09/11 01:07:54;;;;;;;4.15;1.75;;;;;;;;;;5005515;28;20129;-76
2022/09/11 01:10:50;;;;;;;6.30;1.80;;;;;;;;;;5005017;28;20502;-76
2022/09/11 01:13:24;;;;;;;4.50;1.65;;;;;;;;;;4959072;28;20125;-76
2022/09/11 01:16:03;;;;;;;6.15;1.40;;;;;;;;;;4971595;28;20080;-76
2022/09/11 01:18:36;;;;;;;4.45;1.30;;;;;;;;;;4987674;28;20498;-78
2022/09/11 01:21:17;;;;;;;3.40;1.52;;;;;;;;;;4987249;28;20448;-76
2022/09/11 01:23:45;;;;;;;1.58;1.15;;;;;;;;;;4981857;28;20038;-77
2022/09/11 01:26:42;;;;;;;3.65;1.73;;;;;;;;;;5004011;28;20088;-75
2022/09/11 01:29:24;;;;;;;3.70;1.30;;;;;;;;;;4952181;28;20055;-76
2022/09/11 01:32:04;;;;;;;3.30;1.40;;;;;;;;;;4983781;28;20403;-76
2022/09/11 01:34:43;;;;;;;3.53;1.10;;;;;;;;;;5000004;28;20288;-77
2022/09/11 01:37:17;;;;;;;4.85;1.58;;;;;;;;;;4987275;28;20041;-75
2022/09/11 01:39:47;;;;;;;2.10;1.13;;;;;;;;;;4986783;28;20417;-75
2022/09/11 01:42:17;;;;;;;4.18;0.93;;;;;;;;;;5008156;28;20120;-76
2022/09/11 01:44:53;;;;;;;4.22;1.50;;;;;;;;;;4985275;28;20468;-76
2022/09/11 01:47:22;;;;;;;3.03;1.15;;;;;;;;;;4994533;28;20081;-76
2022/09/11 01:49:54;;;;;;;6.72;1.52;;;;;;;;;;4994992;28;20113;-77
2022/09/11 01:52:28;;;;;;;2.88;1.50;;;;;;;;;;4996187;28;20034;-77
2022/09/11 01:55:09;;;;;;;5.60;1.63;;;;;;;;;;5008859;28;20042;-76
2022/09/11 01:57:40;;;;;;;3.72;1.70;;;;;;;;;;5005969;28;20432;-76
2022/09/11 02:00:12;;;;;;;1.60;1.50;;;;;;;;;;4987460;28;20545;-76
2022/09/11 02:02:44;;;;;;;6.47;1.60;;;;;;;;;;4984097;28;20042;-76
2022/09/11 02:05:17;;;;;;;3.72;1.70;;;;;;;;;;4994583;28;20457;-76
2022/09/11 02:07:49;;;;;;;1.80;1.50;;;;;;;;;;4993999;28;20490;-76
2022/09/11 02:10:23;;;;;;;3.42;2.00;;;;;;;;;;4993559;28;20493;-76
2022/09/11 02:12:54;;;;;;;2.75;1.58;;;;;;;;;;4990099;28;20045;-77
2022/09/11 02:15:23;;;;;;;6.53;1.90;;;;;;;;;;5010089;28;20073;-77
2022/09/11 02:17:54;;;;;;;2.05;1.50;;;;;;;;;;5008825;28;20050;-77
2022/09/11 02:20:27;;;;;;;4.00;1.70;;;;;;;;;;4989596;28;20042;-76
2022/09/11 02:22:55;;;;;;;2.78;1.63;;;;;;;;;;4988858;28;20046;-76
2022/09/11 02:25:23;;;;;;;3.70;1.90;;;;;;;;;;5007265;28;20486;-76
2022/09/11 02:27:55;;;;;;;1.70;1.58;;;;;;;;;;4981853;28;20092;-77
2022/09/11 02:30:22;;;;;;;2.90;1.55;;;;;;;;;;4986010;28;20777;-76
2022/09/11 02:32:50;;;;;;;2.55;1.40;;;;;;;;;;4988876;28;20064;-77
2022/09/11 02:35:17;;;;;;;3.00;1.50;;;;;;;;;;4986563;28;20523;-78
2022/09/11 02:37:48;;;;;;;4.07;1.65;;;;;;;;;;4986383;28;20049;-77
2022/09/11 02:40:37;;;;;;;5.00;1.60;;;;;;;;;;4986218;28;20050;-76
2022/09/11 02:43:08;;;;;;;1.95;1.80;;;;;;;;;;4969315;28;20064;-77
2022/09/11 02:45:42;;;;;;;4.63;1.70;;;;;;;;;;4995528;28;20445;-78
2022/09/11 02:48:28;;;;;;;2.92;1.40;;;;;;;;;;4987032;28;20048;-77
2022/09/11 02:51:16;;;;;;;2.28;1.67;;;;;;;;;;5006908;28;20137;-76
2022/09/11 02:54:00;;;;;;;2.25;1.65;;;;;;;;;;4985772;28;20046;-78
2022/09/11 02:56:33;;;;;;;2.20;1.30;;;;;;;;;;4970278;28;20049;-76
2022/09/11 02:59:09;;;;;;;2.10;1.13;;;;;;;;;;4986459;28;20054;-76
2022/09/11 03:01:50;;;;;;;3.78;1.80;;;;;;;;;;4971482;28;20365;-76
2022/09/11 03:04:21;;;;;;;7.00;1.50;;;;;;;;;;4984664;28;20041;-78
2022/09/11 03:06:49;;;;;;;4.65;1.90;;;;;;;;;;4988263;28;20458;-76
2022/09/11 03:09:17;;;;;;;1.83;1.63;;;;;;;;;;5007149;28;20496;-76
2022/09/11 03:11:47;;;;;;;1.70;1.60;;;;;;;;;;4989074;28;20038;-76
2022/09/11 03:14:14;;;;;;;2.97;1.67;;;;;;;;;;4989953;28;20050;-76
2022/09/11 03:16:42;;;;;;;3.97;1.55;;;;;;;;;;4989315;28;20114;-78
2022/09/11 03:19:11;;;;;;;2.60;1.67;;;;;;;;;;4986820;28;20060;-76
2022/09/11 03:21:39;;;;;;;2.83;1.67;;;;;;;;;;5003196;28;20046;-76
2022/09/11 03:24:08;;;;;;;3.90;1.67;;;;;;;;;;4989012;28;20065;-76
2022/09/11 03:26:36;;;;;;;3.72;1.50;;;;;;;;;;4985393;28;20046;-79
2022/09/11 03:29:04;;;;;;;6.22;1.52;;;;;;;;;;4985900;28;20069;-76
2022/09/11 03:31:31;;;;;;;2.67;1.40;;;;;;;;;;4985496;28;20141;-78
2022/09/11 03:34:05;;;;;;;4.97;1.77;;;;;;;;;;4969848;28;20057;-77
2022/09/11 03:36:33;;;;;;;3.58;1.30;;;;;;;;;;4964046;28;20413;-77
2022/09/11 03:39:01;;;;;;;2.08;1.50;;;;;;;;;;4984036;28;20104;-77
2022/09/11 03:41:29;;;;;;;1.60;1.50;;;;;;;;;;4985166;28;20129;-76
2022/09/11 03:43:57;;;;;;;3.30;1.48;;;;;;;;;;5005743;28;20136;-77
2022/09/11 03:46:24;;;;;;;3.03;1.40;;;;;;;;;;4988740;28;20073;-79
2022/09/11 03:48:52;;;;;;;2.85;1.50;;;;;;;;;;4988719;28;20135;-77
2022/09/11 03:51:20;;;;;;;3.97;1.60;;;;;;;;;;4984685;28;20030;-78
2022/09/11 03:53:47;;;;;;;4.90;1.60;;;;;;;;;;5000871;28;20046;-78
2022/09/11 03:56:14;;;;;;;2.88;1.20;;;;;;;;;;4987503;28;20708;-79
2022/09/11 03:58:47;;;;;;;2.20;1.40;;;;;;;;;;4972017;28;20283;-76
2022/09/11 04:01:18;;;;;;;3.17;1.48;;;;;;;;;;4988324;28;20499;-77
2022/09/11 04:03:46;;;;;;;2.47;1.30;;;;;;;;;;4987810;28;20042;-78
2022/09/11 04:06:23;;;;;;;3.13;1.60;;;;;;;;;;4988019;28;20056;-78
2022/09/11 04:08:50;;;;;;;4.70;1.60;;;;;;;;;;4981391;28;20045;-78
2022/09/11 04:11:21;;;;;;;4.35;1.40;;;;;;;;;;4987536;28;20041;-78
2022/09/11 04:13:50;;;;;;;4.90;1.40;;;;;;;;;;4986433;28;20139;-79
2022/09/11 04:16:19;;;;;;;5.40;1.50;;;;;;;;;;4987688;28;20048;-78
2022/09/11 04:18:53;;;;;;;4.72;1.60;;;;;;;;;;4982988;28;20073;-77
2022/09/11 04:21:20;;;;;;;2.20;1.30;;;;;;;;;;4968869;28;20059;-78
2022/09/11 04:23:55;;;;;;;2.95;1.33;;;;;;;;;;4968322;28;20046;-79
2022/09/11 04:26:26;;;;;;;2.35;1.35;;;;;;;;;;5004190;28;20492;-78
2022/09/11 04:29:00;;;;;;;1.38;1.27;;;;;;;;;;4984307;28;20054;-76
2022/09/11 04:31:28;;;;;;;3.95;1.40;;;;;;;;;;4994318;28;20042;-77
2022/09/11 04:33:56;;;;;;;5.75;1.30;;;;;;;;;;4967126;28;20133;-76
2022/09/11 04:36:28;;;;;;;6.85;1.52;;;;;;;;;;4968405;28;20072;-78
2022/09/11 04:38:57;;;;;;;2.58;1.50;;;;;;;;;;4968926;28;20058;-76
2022/09/11 04:41:25;;;;;;;4.00;1.30;;;;;;;;;;4993692;28;20128;-75
2022/09/11 04:43:56;;;;;;;4.70;1.65;;;;;;;;;;4971690;28;20096;-77
2022/09/11 04:46:30;;;;;;;2.60;1.35;;;;;;;;;;4985268;28;20552;-77
2022/09/11 04:49:01;;;;;;;2.88;1.50;;;;;;;;;;4987801;28;20551;-76
2022/09/11 04:51:31;;;;;;;2.28;1.30;;;;;;;;;;4987646;28;20117;-76
2022/09/11 04:54:00;;;;;;;1.30;1.20;;;;;;;;;;4973432;28;20402;-77
2022/09/11 04:56:37;;;;;;;4.22;1.90;;;;;;;;;;4983100;28;20323;-77
2022/09/11 04:59:14;;;;;;;2.22;1.90;;;;;;;;;;4979874;28;20053;-78
2022/09/11 05:01:46;;;;;;;7.10;1.77;;;;;;;;;;4968082;28;20053;-76
2022/09/11 05:04:15;;;;;;;3.20;1.50;;;;;;;;;;4981367;28;20182;-78
2022/09/11 05:06:47;;;;;;;1.45;1.27;;;;;;;;;;4981035;28;20269;-76
2022/09/11 05:09:16;;;;;;;6.10;1.30;;;;;;;;;;4987371;28;20046;-77
2022/09/11 05:11:46;;;;;;;4.00;1.20;;;;;;;;;;4984229;28;20101;-76
2022/09/11 05:14:14;;;;;;;1.20;1.00;;;;;;;;;;4988802;28;20042;-77
2022/09/11 05:16:44;;;;;;;3.50;1.20;;;;;;;;;;5004098;28;20081;-77
2022/09/11 05:19:14;;;;;;;3.42;1.27;;;;;;;;;;4986059;28;20034;-77
2022/09/11 05:21:43;;;;;;;2.20;1.00;;;;;;;;;;4967259;28;20049;-76
2022/09/11 05:24:10;;;;;;;4.65;1.42;;;;;;;;;;5005675;28;20041;-76
2022/09/11 05:26:40;;;;;;;1.60;0.90;;;;;;;;;;4990659;28;20348;-77
2022/09/11 05:29:14;;;;;;;2.85;1.20;;;;;;;;;;4989839;28;20069;-77
2022/09/11 05:31:54;;;;;;;2.85;1.10;;;;;;;;;;4984757;28;20042;-77
2022/09/11 05:34:21;;;;;;;5.57;1.42;;;;;;;;;;4984159;28;20056;-77
2022/09/11 05:36:50;;;;;;;3.88;2.05;;;;;;;;;;4981415;28;20050;-77
2022/09/11 05:39:18;;;;;;;3.20;2.40;;;;;;;;;;4974696;28;20494;-76
2022/09/11 05:41:49;;;;;;;9.90;3.17;;;;;;;;;;4986041;28;20042;-77
2022/09/11 05:44:16;;;;;;;8.68;3.38;;;;;;;;;;4982975;28;20072;-76
2022/09/11 05:46:44;;;;;;;5.78;3.13;;;;;;;;;;4973596;28;20359;-77
2022/09/11 05:49:12;;;;;;;10.45;5.13;;;;;;;;;;4981371;28;20045;-77
2022/09/11 05:51:40;;;;;;;9.63;6.95;;;;;;;;;;4990211;28;20048;-79
2022/09/11 05:54:07;;;;;;;8.15;5.05;;;;;;;;;;4970135;28;20042;-79
2022/09/11 05:56:35;;;;;;;2.85;2.58;;;;;;;;;;5006397;28;20275;-77
2022/09/11 05:59:16;;;;;;;6.82;2.03;;;;;;;;;;4994169;28;20116;-77
2022/09/11 06:01:46;;;;;;;3.78;1.60;;;;;;;;;;4981357;28;20046;-77
2022/09/11 06:04:20;;;;;;;2.10;0.90;;;;;;;;;;4998405;28;20131;-79
2022/09/11 06:06:50;;;;;;;3.33;1.52;;;;;;;;;;4988666;28;20038;-78
2022/09/11 06:09:18;;;;;;;1.52;1.05;;;;;;;;;;4989306;28;20445;-78
2022/09/11 06:11:46;;;;;;;4.80;1.52;;;;;;;;;;4979703;28;20506;-76
2022/09/11 06:14:14;;;;;;;7.13;1.63;;;;;;;;;;4970167;28;20070;-76
2022/09/11 06:16:43;;;;;;;3.08;1.55;;;;;;;;;;4968602;28;20097;-77
2022/09/11 06:19:15;;;;;;;4.50;1.83;;;;;;;;;;4983099;28;20041;-78
2022/09/11 06:21:43;;;;;;;4.57;1.77;;;;;;;;;;4983071;28;20051;-79
2022/09/11 06:24:23;;;;;;;2.72;1.77;;;;;;;;;;5000971;28;20042;-79
2022/09/11 06:26:51;;;;;;;3.40;1.80;;;;;;;;;;4977259;28;20041;-77
2022/09/11 06:29:19;;;;;;;2.92;1.63;;;;;;;;;;4977933;28;20042;-77
2022/09/11 06:31:50;;;;;;;2.33;1.70;;;;;;;;;;4995206;28;20053;-78
2022/09/11 06:34:20;;;;;;;6.07;2.20;;;;;;;;;;4979322;28;20046;-78
2022/09/11 06:36:48;;;;;;;2.10;1.45;;;;;;;;;;4978518;28;20561;-77
2022/09/11 06:39:19;;;;;;;3.70;1.80;;;;;;;;;;4998141;28;20038;-78
2022/09/11 06:41:46;;;;;;;4.90;2.15;;;;;;;;;;4975599;28;20459;-78
2022/09/11 06:44:15;;;;;;;4.40;1.85;;;;;;;;;;5000638;28;20168;-78
2022/09/11 06:46:43;;;;;;;2.70;1.75;;;;;;;;;;4978269;28;20038;-77
2022/09/11 06:49:13;;;;;;;4.63;1.88;;;;;;;;;;4978185;28;20602;-77
2022/09/11 06:51:59;;;;;;;5.05;2.50;;;;;;;;;;4985308;28;20046;-78
2022/09/11 06:54:28;;;;;;;3.88;2.00;;;;;;;;;;4991342;28;20493;-78
2022/09/11 06:56:56;;;;;;;1.42;1.33;;;;;;;;;;4973063;28;20080;-76
2022/09/11 06:59:24;;;;;;;3.55;1.67;;;;;;;;;;5006775;28;20045;-77
2022/09/11 07:01:51;;;;;;;2.17;1.70;;;;;;;;;;4963052;28;20054;-77
2022/09/11 07:04:22;;;;;;;1.40;1.25;;;;;;;;;;4986724;28;20052;-76
2022/09/11 07:06:49;;;;;;;8.50;2.10;;;;;;;;;;4990379;28;20050;-77
2022/09/11 07:09:17;;;;;;;13.10;2.10;;;;;;;;;;4995934;28;20050;-76
2022/09/11 07:11:52;;;;;;;4.07;1.70;;;;;;;;;;4951198;28;20540;-76
2022/09/11 07:14:20;;;;;;;5.35;1.65;;;;;;;;;;4954067;28;20128;-76
2022/09/11 07:16:53;;;;;;;2.87;1.83;;;;;;;;;;4987935;28;20065;-76
2022/09/11 07:19:24;;;;;;;2.72;1.40;;;;;;;;;;4983504;28;20301;-75
2022/09/11 07:21:51;;;;;;;16.48;4.18;;;;;;;;;;4976206;28;20042;-75
2022/09/11 07:24:20;;;;;;;5.43;1.70;;;;;;;;;;5002863;28;20524;-76
2022/09/11 07:26:48;;;;;;;2.40;1.80;;;;;;;;;;4969666;28;20053;-76
2022/09/11 07:29:26;;;;;;;2.65;1.67;;;;;;;;;;4955668;28;20037;-76
2022/09/11 07:31:56;;;;;;;5.25;1.58;;;;;;;;;;4982416;28;20050;-76
2022/09/11 07:34:23;;;;;;;5.97;2.42;;;;;;;;;;4991838;28;20944;-76
2022/09/11 07:36:51;;;;;;;3.42;1.90;;;;;;;;;;5000124;28;20124;-76
2022/09/11 07:39:20;;;;;;;2.25;2.03;;;;;;;;;;4981502;28;20042;-76
2022/09/11 07:42:08;;;;;;;4.90;2.60;;;;;;;;;;4982413;28;20190;-76
2022/09/11 07:44:36;;;;;;;;;;;;;;;;;;4984163;28;20048;-76
2022/09/11 07:47:04;;;;;;;8.23;2.75;;;;;;;;;;4997032;28;20436;-77
2022/09/11 07:49:37;;;;;;;4.57;1.73;;;;;;;;;;4977654;28;20198;-76
2022/09/11 07:52:05;;;;;;;3.97;1.90;;;;;;;;;;4983128;28;20045;-76
2022/09/11 07:54:39;;;;;;;2.50;1.95;;;;;;;;;;4977620;28;20049;-69
2022/09/11 07:57:06;;;;;;;4.60;2.75;;;;;;;;;;4989363;28;20421;-69
2022/09/11 07:59:34;;;;;;;5.38;2.85;;;;;;;;;;4976917;28;20038;-69
2022/09/11 08:02:03;;;;;;;4.25;2.35;;;;;;;;;;4985870;28;20398;-69
2022/09/11 08:04:31;;;;;;;5.03;2.45;;;;;;;;;;4993275;28;20044;-69
2022/09/11 08:06:58;;;;;;;6.35;2.88;;;;;;;;;;4979518;28;20382;-69
2022/09/11 08:09:29;;;;;;;3.50;1.80;;;;;;;;;;4979060;28;20890;-69
2022/09/11 08:12:00;;;;;;;2.53;0.95;;;;;;;;;;5000177;28;20073;-68
2022/09/11 08:14:27;;;;;;;5.20;1.35;;;;;;;;;;5003170;28;20041;-68
2022/09/11 08:17:00;;;;;;;2.03;1.40;;;;;;;;;;4987439;28;20045;-68
2022/09/11 08:19:29;;;;;;;5.20;2.28;;;;;;;;;;4982359;28;20069;-69
2022/09/11 08:22:00;;;;;;;3.42;2.03;;;;;;;;;;4987691;28;20054;-68
2022/09/11 08:24:33;;;;;;;5.10;2.58;;;;;;;;;;4987986;28;20037;-68
2022/09/11 08:27:04;;;;;;;3.92;2.63;;;;;;;;;;4983170;28;20042;-68
